Skip Navigation Links
NOAA logo - Click to go to the NOAA homepage
NOAA's National Weather Service
Alaska Aviation Weather Unit
  NWS logo - Click to go to the NWS homepage
Left Navbar Graphic     21 AKDT = 05 GMT

   
NOAA is celebrating 200 years of science, service, and stewardship. Visit the NOAA 200th celebration Web site to learn more.
USA.gov is the U.S. Government's official Web portal to all Federal, state and local government Web resources and services.
Facebook
NWS on Facebook

Important Change Regarding the AAWU Web Presence

 

Over the last several months, the AAWU has been working to navigate its webpages to a nationally supported server. Security, as well as other needs, have necessitated the change.  In the process, we have made an effort to enhance the functionality of our website, as well as some of our products. As of June 27, 2017, aawu.arh.noaa.gov will be discontinued. The new AAWU web address is weather.gov/aawu. It is now live and will run in-parallel with the old site until it is discontinued. Please send any feedback or questions regarding the new webpages to nws.ar.aawu.webauthors@noaa.gov.  Thank you for your patience during this time of transition.
AAWU Home :: Display TAF Add Bookmark
TAF PAKW 242338Z 2500/2524 VRB04KT P6SM VCSH BKN025 OVC040
      TEMPO 2500/2504 SCT025 OVC040
     FM251000 17005KT P6SM -SHRA BKN020 OVC040
      AMD LTD TO CLD VIS AND WIND=

METAR PAKW 242353Z AUTO 33003KT 10SM OVC030 14/10 A3011 RMK AO2 SLP194 T01440100 10167 20133 58009 TSNO= METAR PAKW 250053Z AUTO VRB04KT 10SM OVC026 14/10 A3010 RMK AO2 SLP191 T01440100 TSNO= METAR PAKW 250153Z AUTO 00000KT 10SM OVC027 14/10 A3009 RMK AO2 SLP188 T01440100 TSNO= METAR PAKW 250253Z AUTO 34004KT 10SM BKN026 OVC031 15/10 A3007 RMK AO2 SLP182 T01500100 58012 TSNO= PAKW 250353Z AUTO 21008KT 10SM SCT018 BKN023 OVC031 12/10 A3007 RMK SLP181 T01220100 TSNO VIA AUTODIAL= SPECI PAKW 250421Z AUTO 21003KT 10SM SCT009 BKN017 OVC044 12/10 A3006 RMK AO2 T01220100 TSNO= SPECI PAKW 250432Z AUTO 21004KT 10SM BKN009 BKN017 OVC024 12/09 A3006 RMK AO2 CIG 008V013 T01220094 TSNO= SPECI PAKW 250448Z AUTO 17003KT 10SM SCT009 BKN037 BKN045 12/09 A3005 RMK AO2 TSNO= METAR PAKW 250453Z AUTO 19004KT 10SM SCT009 BKN036 BKN046 12/09 A3005 RMK SLP177 T01170089 TSNO VIA AUTODIAL= SPECI PAKW 250505Z AUTO 00000KT 10SM BKN014 BKN036 BKN046 12/09 A3005 RMK AO2 T01170094 TSNO=
 Alaska TAF Map

NOAA's National Weather Service
Alaska Aviation Weather Unit
6930 Sand Lake Road
Anchorage, AK 99502-1845
Disclaimer
Credits
Glossary
Privacy Policy
About Us
Career Opportunities
Contact AAWU Internet Services Site last modified: April, 17th 2012